Terminal Aerodrome Forecast
Issued by NWS Grand Forks, ND

Home | Current Version | Previous Version | Text Only | Print | Product List | Glossary Off
Versions: 1 2 3 4 5 6 7 8 9 10 11 12 13 14 15 16 17

000
FTUS43 KFGF 261720
TAFGFK
TAF
KGFK 261720Z 2618/2718 25006KT P6SM SCT080
     FM262100 27006KT P6SM VCSH SCT250
     FM270300 29006KT P6SM SCT120
     FM271200 34008KT P6SM SCT250=

USA.gov is the U.S. government's official web portal to all federal, state and local government web resources and services.